createdAt,value
2019-03-29T00:01:35.543Z,11.67
2019-03-29T00:04:03.987Z,11.70
2019-03-29T00:06:32.467Z,12.17
2019-03-29T00:09:01.976Z,11.93
2019-03-29T00:11:30.718Z,12.27
2019-03-29T00:13:59.177Z,11.63
2019-03-29T00:16:27.615Z,12.73
2019-03-29T00:18:56.391Z,12.63
2019-03-29T00:21:24.854Z,12.90
2019-03-29T00:24:06.184Z,13.03
2019-03-29T00:26:23.450Z,12.57
2019-03-29T00:28:52.161Z,13.30
2019-03-29T00:31:20.626Z,13.57
2019-03-29T00:33:49.368Z,12.87
2019-03-29T00:36:18.614Z,13.00
2019-03-29T00:38:47.045Z,12.23
2019-03-29T00:41:15.474Z,12.63
2019-03-29T00:43:44.060Z,12.57
2019-03-29T00:46:12.490Z,12.40
2019-03-29T00:48:40.926Z,12.83
2019-03-29T00:51:09.402Z,13.37
2019-03-29T00:53:37.835Z,13.43
2019-03-29T00:56:06.278Z,13.40
2019-03-29T00:58:34.762Z,13.93
2019-03-29T01:01:03.276Z,12.93
2019-03-29T01:03:31.774Z,13.33
2019-03-29T01:06:00.425Z,13.63
2019-03-29T01:08:28.859Z,12.93
2019-03-29T01:10:57.293Z,13.77
2019-03-29T01:13:25.841Z,13.67
2019-03-29T01:15:54.275Z,13.57
2019-03-29T01:18:22.879Z,13.93
2019-03-29T01:20:51.338Z,13.57
2019-03-29T01:23:19.770Z,13.67
2019-03-29T01:25:48.207Z,14.13
2019-03-29T01:28:16.937Z,12.97
2019-03-29T01:30:45.738Z,14.33
2019-03-29T01:33:14.178Z,14.20
2019-03-29T01:35:42.756Z,13.90
2019-03-29T01:38:21.780Z,14.00
2019-03-29T01:40:41.841Z,13.57
2019-03-29T01:43:10.357Z,13.37
2019-03-29T01:45:38.818Z,14.17
2019-03-29T01:48:07.263Z,14.07
2019-03-29T01:50:35.749Z,14.00
2019-03-29T01:53:04.388Z,15.03
2019-03-29T01:55:32.822Z,14.50
2019-03-29T01:58:01.286Z,14.40
2019-03-29T02:00:31.860Z,14.87
2019-03-29T02:03:00.369Z,14.00
2019-03-29T02:05:28.830Z,15.23
2019-03-29T02:07:57.345Z,15.37
2019-03-29T02:10:26.230Z,15.97
2019-03-29T02:12:54.703Z,15.70
2019-03-29T02:15:23.502Z,15.33
2019-03-29T02:17:52.106Z,16.40
2019-03-29T02:20:20.581Z,14.43
2019-03-29T02:22:49.014Z,15.97
2019-03-29T02:25:17.734Z,15.40
2019-03-29T02:27:46.227Z,14.13
2019-03-29T02:30:15.007Z,15.07
2019-03-29T02:32:43.449Z,14.97
2019-03-29T02:35:12.010Z,15.63
2019-03-29T02:37:40.490Z,14.50
2019-03-29T02:40:09.157Z,15.97
2019-03-29T02:42:37.634Z,16.60
2019-03-29T02:45:07.034Z,15.60
2019-03-29T02:47:35.461Z,15.47
2019-03-29T02:50:04.861Z,15.53
2019-03-29T02:52:33.304Z,15.73
2019-03-29T02:55:01.738Z,16.40
2019-03-29T02:57:30.215Z,15.93
2019-03-29T02:59:58.651Z,15.70
2019-03-29T03:02:27.087Z,15.80
2019-03-29T03:04:55.564Z,16.33
2019-03-29T03:07:23.991Z,15.90
2019-03-29T03:09:52.431Z,15.53
2019-03-29T03:12:21.224Z,17.03
2019-03-29T03:14:49.733Z,16.87
2019-03-29T03:17:18.488Z,16.27
2019-03-29T03:19:46.967Z,16.50
2019-03-29T03:22:15.404Z,17.70
2019-03-29T03:24:43.840Z,16.97
2019-03-29T03:27:12.316Z,17.57
2019-03-29T03:29:40.739Z,17.47
2019-03-29T03:32:09.184Z,16.17
2019-03-29T03:34:37.670Z,16.40
2019-03-29T03:37:06.171Z,17.50
2019-03-29T03:39:34.614Z,17.00
2019-03-29T03:42:03.080Z,17.17
2019-03-29T03:44:31.513Z,17.27
2019-03-29T03:46:59.939Z,17.03
2019-03-29T03:49:28.410Z,17.37
2019-03-29T03:51:56.918Z,17.27
2019-03-29T03:54:25.348Z,17.63
2019-03-29T03:56:54.459Z,17.80
2019-03-29T03:59:25.663Z,17.90
2019-03-29T04:01:54.428Z,18.20
2019-03-29T04:04:22.898Z,17.47
2019-03-29T04:06:51.356Z,17.27
2019-03-29T04:09:19.841Z,17.37
2019-03-29T04:11:48.312Z,16.87
2019-03-29T04:14:16.745Z,17.63
2019-03-29T04:16:45.355Z,18.20
2019-03-29T04:19:13.792Z,17.90
2019-03-29T04:21:42.497Z,18.17
2019-03-29T04:24:10.967Z,17.67
2019-03-29T04:26:39.659Z,17.43
2019-03-29T04:29:08.174Z,17.80
2019-03-29T04:31:36.635Z,18.17
2019-03-29T04:34:05.067Z,18.20
2019-03-29T04:36:33.507Z,18.93
2019-03-29T04:39:02.039Z,18.33
2019-03-29T04:41:30.468Z,17.87
2019-03-29T04:43:59.181Z,18.40
2019-03-29T04:46:27.643Z,16.67
2019-03-29T04:48:56.074Z,18.00
2019-03-29T04:51:24.515Z,18.80
2019-03-29T04:53:53.235Z,19.83
2019-03-29T04:56:21.670Z,19.73
2019-03-29T04:58:50.107Z,19.77
2019-03-29T05:01:18.571Z,18.50
2019-03-29T05:03:47.011Z,18.77
2019-03-29T05:06:15.460Z,18.87
2019-03-29T05:08:43.935Z,17.87
2019-03-29T05:11:12.634Z,18.93
2019-03-29T05:13:41.075Z,19.53
2019-03-29T05:16:09.543Z,18.43
2019-03-29T05:18:38.012Z,18.83
2019-03-29T05:21:06.451Z,17.67
2019-03-29T05:23:35.246Z,18.67
2019-03-29T05:26:03.753Z,18.10
2019-03-29T05:28:32.182Z,19.30
2019-03-29T05:31:00.718Z,19.53
2019-03-29T05:33:29.153Z,18.27
2019-03-29T05:35:57.582Z,18.37
2019-03-29T05:38:26.351Z,18.77
2019-03-29T05:40:54.794Z,18.10
2019-03-29T05:43:23.226Z,19.00
2019-03-29T05:45:51.718Z,17.97
2019-03-29T05:48:20.140Z,17.70
2019-03-29T05:50:48.874Z,17.83
2019-03-29T05:53:17.354Z,18.03
2019-03-29T05:55:48.336Z,17.50
2019-03-29T05:58:15.955Z,17.97
2019-03-29T06:00:44.502Z,17.83
2019-03-29T06:03:12.972Z,17.77
2019-03-29T06:05:41.414Z,18.73
2019-03-29T06:08:09.872Z,18.30
2019-03-29T06:10:48.341Z,19.50
2019-03-29T06:13:08.469Z,19.50
2019-03-29T06:15:36.951Z,20.57
2019-03-29T06:18:05.382Z,20.37
2019-03-29T06:20:33.816Z,19.60
2019-03-29T06:23:02.283Z,18.57
2019-03-29T06:25:30.721Z,18.40
2019-03-29T06:27:59.157Z,18.33
2019-03-29T06:30:30.847Z,18.67
2019-03-29T06:32:59.352Z,19.07
2019-03-29T06:35:31.127Z,19.70
2019-03-29T06:38:00.235Z,19.67
2019-03-29T06:40:28.684Z,19.67
2019-03-29T06:42:57.131Z,19.30
2019-03-29T06:45:25.734Z,19.70
2019-03-29T06:47:54.184Z,20.47
2019-03-29T06:50:22.963Z,19.17
2019-03-29T06:52:51.439Z,18.83
2019-03-29T06:55:19.940Z,18.70
2019-03-29T06:57:48.377Z,19.00
2019-03-29T07:00:17.266Z,17.80
2019-03-29T07:02:45.707Z,20.43
2019-03-29T07:05:14.215Z,19.73
2019-03-29T07:07:44.521Z,19.97
2019-03-29T07:10:12.891Z,20.20
2019-03-29T07:12:41.322Z,19.63
2019-03-29T07:15:10.125Z,20.57
2019-03-29T07:17:38.587Z,19.77
2019-03-29T07:20:07.659Z,20.10
2019-03-29T07:22:36.139Z,20.83
2019-03-29T07:25:07.105Z,19.37
2019-03-29T07:27:44.704Z,19.63
2019-03-29T07:30:06.666Z,20.07
2019-03-29T07:32:35.222Z,20.10
2019-03-29T07:35:05.549Z,20.97
2019-03-29T07:37:34.118Z,19.77
2019-03-29T07:40:02.549Z,19.73
2019-03-29T07:42:30.978Z,19.03
2019-03-29T07:44:59.439Z,19.43
2019-03-29T07:47:27.866Z,20.87
2019-03-29T07:49:56.298Z,19.80
2019-03-29T07:52:25.019Z,20.03
2019-03-29T07:54:53.452Z,19.27
2019-03-29T07:57:21.878Z,19.43
2019-03-29T07:59:50.618Z,18.77
2019-03-29T08:58:57.451Z,17.97
2019-03-29T09:01:26.160Z,17.07
2019-03-29T09:04:04.646Z,15.57
2019-03-29T09:06:24.802Z,13.87
2019-03-29T09:08:53.511Z,13.77
2019-03-29T09:11:22.302Z,14.93
2019-03-29T09:13:51.104Z,13.50
2019-03-29T09:16:19.874Z,12.97
2019-03-29T09:18:48.668Z,13.40
2019-03-29T09:21:17.144Z,13.20
2019-03-29T09:23:45.839Z,13.17
2019-03-29T09:26:14.282Z,11.00
2019-03-29T09:28:42.794Z,13.37
2019-03-29T09:31:11.354Z,13.53
2019-03-29T09:33:40.096Z,14.57
2019-03-29T09:36:08.662Z,13.80
2019-03-29T09:38:37.161Z,15.00
2019-03-29T09:41:05.856Z,14.93
2019-03-29T09:43:34.331Z,15.30
2019-03-29T09:46:03.483Z,14.87
2019-03-29T09:48:34.523Z,15.13
2019-03-29T09:51:02.538Z,13.97
2019-03-29T09:53:31.247Z,13.90
2019-03-29T09:56:00.599Z,15.07
2019-03-29T09:58:29.195Z,13.63
2019-03-29T10:00:57.632Z,14.80
2019-03-29T10:03:26.139Z,14.10
2019-03-29T10:05:54.621Z,13.87
2019-03-29T10:08:23.051Z,13.57
2019-03-29T10:10:51.596Z,13.23
2019-03-29T10:13:20.080Z,14.03
2019-03-29T10:15:51.310Z,13.10
2019-03-29T10:18:19.032Z,13.60
2019-03-29T10:20:47.708Z,12.13
2019-03-29T10:23:16.145Z,12.87
2019-03-29T10:25:44.590Z,12.70
2019-03-29T10:28:13.042Z,12.80
2019-03-29T10:30:46.579Z,13.10
2019-03-29T10:33:13.797Z,13.57
2019-03-29T10:35:51.603Z,13.27
2019-03-29T10:38:12.563Z,13.03
2019-03-29T10:40:41.002Z,14.00
2019-03-29T10:43:09.463Z,13.27
2019-03-29T10:45:40.400Z,13.50
2019-03-29T10:48:08.295Z,13.03
2019-03-29T10:50:36.998Z,12.57
2019-03-29T10:53:05.666Z,12.13
2019-03-29T10:55:34.156Z,12.37
2019-03-29T10:58:02.618Z,10.77
2019-03-29T11:00:36.379Z,11.20
2019-03-29T11:03:05.410Z,11.17
2019-03-29T11:05:33.982Z,11.77
2019-03-29T11:08:02.690Z,11.17
2019-03-29T11:10:36.429Z,11.50
2019-03-29T11:13:12.467Z,10.47
2019-03-29T11:15:35.625Z,11.47
2019-03-29T11:18:05.304Z,10.27
2019-03-29T11:20:33.758Z,11.07
2019-03-29T11:23:02.199Z,10.33
2019-03-29T11:25:30.626Z,9.80
2019-03-29T11:27:59.086Z,10.47
2019-03-29T11:30:41.209Z,10.37
2019-03-29T11:32:58.122Z,10.00
2019-03-29T11:35:26.721Z,9.90
2019-03-29T11:37:55.151Z,9.13
2019-03-29T11:40:24.175Z,9.43
2019-03-29T11:42:52.638Z,9.33
2019-03-29T11:45:21.057Z,8.90
2019-03-29T11:47:49.818Z,9.17
2019-03-29T11:50:18.742Z,9.27
2019-03-29T11:52:47.178Z,9.83
2019-03-29T11:55:15.685Z,9.40
2019-03-29T11:57:44.213Z,9.67
2019-03-29T12:00:13.503Z,8.67
2019-03-29T12:02:41.930Z,8.90
2019-03-29T12:05:10.502Z,9.63
2019-03-29T12:07:38.990Z,9.70
2019-03-29T12:10:09.193Z,9.00
2019-03-29T12:12:37.727Z,8.70
2019-03-29T12:15:07.796Z,8.30
2019-03-29T12:17:36.960Z,8.50
2019-03-29T12:20:07.788Z,9.30
2019-03-29T12:22:36.618Z,8.73
2019-03-29T12:25:06.649Z,8.67
2019-03-29T12:27:35.423Z,8.20
2019-03-29T12:30:06.629Z,8.00
2019-03-29T12:32:35.311Z,8.37
2019-03-29T12:35:05.668Z,8.07
2019-03-29T12:37:34.102Z,8.40
2019-03-29T12:40:03.206Z,8.13
2019-03-29T12:42:31.663Z,8.50
2019-03-29T12:45:00.345Z,8.50
2019-03-29T12:47:28.774Z,8.10
2019-03-29T12:49:57.224Z,8.27
2019-03-29T12:52:25.702Z,7.53
2019-03-29T12:54:54.135Z,7.50
2019-03-29T12:57:23.331Z,7.90
2019-03-29T12:59:51.900Z,8.30
2019-03-29T13:02:20.397Z,8.10
2019-03-29T13:04:49.097Z,8.13
2019-03-29T13:07:17.599Z,8.40
2019-03-29T13:09:46.026Z,8.43
2019-03-29T13:12:14.841Z,8.77
2019-03-29T13:14:43.591Z,8.87
2019-03-29T13:17:12.393Z,8.03
2019-03-29T13:19:40.914Z,8.50
2019-03-29T13:22:10.062Z,8.23
2019-03-29T13:24:38.495Z,8.80
2019-03-29T13:27:07.239Z,8.53
2019-03-29T13:29:35.675Z,9.23
2019-03-29T13:32:04.440Z,8.67
2019-03-29T13:34:32.926Z,8.87
2019-03-29T13:37:01.354Z,8.13
2019-03-29T13:39:29.782Z,7.50
2019-03-29T13:41:58.250Z,7.27
2019-03-29T13:44:28.317Z,8.00
2019-03-29T13:46:57.276Z,7.13
2019-03-29T13:49:25.734Z,8.03
2019-03-29T13:51:54.164Z,7.23
2019-03-29T13:54:22.594Z,8.30
2019-03-29T13:56:51.048Z,7.93
2019-03-29T13:59:19.487Z,7.97
2019-03-29T14:58:25.658Z,10.20
2019-03-29T15:00:54.091Z,10.23
2019-03-29T15:03:22.562Z,9.43
2019-03-29T15:05:51.440Z,9.10
2019-03-29T15:08:20.011Z,8.87
2019-03-29T15:10:48.483Z,10.10
2019-03-29T15:13:16.926Z,9.13
2019-03-29T15:15:45.658Z,9.53
2019-03-29T15:18:14.134Z,9.17
2019-03-29T15:20:53.320Z,9.53
2019-03-29T15:23:13.274Z,10.37
2019-03-29T15:25:41.745Z,9.53
2019-03-29T15:28:10.170Z,9.20
2019-03-29T15:30:38.929Z,8.93
2019-03-29T15:33:07.859Z,9.43
2019-03-29T15:35:36.614Z,9.20
2019-03-29T15:38:05.691Z,9.60
2019-03-29T15:40:34.345Z,8.23
2019-03-29T15:43:02.799Z,9.00
2019-03-29T15:45:31.231Z,8.27
2019-03-29T15:47:59.682Z,7.73
2019-03-29T15:50:28.158Z,8.07
2019-03-29T15:52:56.630Z,9.00
2019-03-29T15:55:25.374Z,8.87
2019-03-29T15:57:53.803Z,8.47
2019-03-29T16:00:22.306Z,8.60
2019-03-29T16:02:50.783Z,9.30
2019-03-29T16:05:19.369Z,8.47
2019-03-29T16:07:47.864Z,7.77
2019-03-29T16:10:16.411Z,8.90
2019-03-29T16:12:44.843Z,9.10
2019-03-29T16:15:13.539Z,8.80
2019-03-29T16:17:42.018Z,8.80
2019-03-29T16:20:10.703Z,8.10
2019-03-29T16:22:39.228Z,8.47
2019-03-29T16:25:08.530Z,8.50
2019-03-29T16:27:37.030Z,8.47
2019-03-29T16:30:09.691Z,7.87
2019-03-29T16:32:38.163Z,7.73
2019-03-29T16:35:07.837Z,8.03
2019-03-29T16:37:36.344Z,8.67
2019-03-29T16:40:06.625Z,8.47
2019-03-29T16:42:35.305Z,7.67
2019-03-29T16:45:04.700Z,8.30
2019-03-29T16:47:33.383Z,7.60
2019-03-29T16:50:02.115Z,8.33
2019-03-29T16:52:30.542Z,7.80
2019-03-29T16:55:11.958Z,7.80
2019-03-29T16:57:29.144Z,7.40
2019-03-29T16:59:57.642Z,7.40
2019-03-29T17:02:26.417Z,7.33
2019-03-29T17:04:54.921Z,6.80
2019-03-29T17:07:23.619Z,7.30
2019-03-29T17:09:52.360Z,6.90
2019-03-29T17:12:20.790Z,6.83
2019-03-29T17:14:49.234Z,7.37
2019-03-29T17:17:18.018Z,7.53
2019-03-29T17:19:46.453Z,8.03
2019-03-29T17:22:14.885Z,7.43
2019-03-29T17:24:56.393Z,6.57
2019-03-29T17:27:14.111Z,7.10
2019-03-29T17:29:42.549Z,6.80
2019-03-29T17:32:11.516Z,6.60
2019-03-29T17:39:35.715Z,6.43
2019-03-29T17:42:04.161Z,6.63
2019-03-29T17:44:32.590Z,6.43
2019-03-29T17:47:01.386Z,6.03
2019-03-29T17:49:29.907Z,5.97
2019-03-29T17:51:58.760Z,6.10
2019-03-29T17:54:27.316Z,6.37
2019-03-29T17:56:55.753Z,6.57
2019-03-29T17:59:24.194Z,5.93
2019-03-29T18:01:52.765Z,5.77
2019-03-29T18:04:21.185Z,6.33
2019-03-29T18:06:49.628Z,6.47
2019-03-29T18:09:18.079Z,7.07
2019-03-29T18:11:46.510Z,7.07
2019-03-29T18:14:14.963Z,7.60
2019-03-29T18:16:43.827Z,8.03
2019-03-29T18:19:12.271Z,7.40
2019-03-29T18:21:40.710Z,8.23
2019-03-29T18:24:09.174Z,8.17
2019-03-29T18:26:37.733Z,8.83
2019-03-29T18:29:06.278Z,7.60
2019-03-29T18:31:35.247Z,8.73
2019-03-29T18:34:04.525Z,8.97
2019-03-29T18:36:33.799Z,9.50
2019-03-29T18:39:02.282Z,8.80
2019-03-29T18:41:30.714Z,9.67
2019-03-29T18:43:59.160Z,9.37
2019-03-29T18:46:27.631Z,10.57
2019-03-29T18:48:56.066Z,9.47
2019-03-29T18:51:24.496Z,9.00
2019-03-29T18:53:53.243Z,9.87
2019-03-29T18:56:21.767Z,11.13
2019-03-29T18:58:50.244Z,10.93
2019-03-29T19:01:18.722Z,11.40
2019-03-29T19:03:47.163Z,10.60
2019-03-29T19:06:15.607Z,10.87
2019-03-29T19:08:44.223Z,10.20
2019-03-29T19:11:12.728Z,9.53
2019-03-29T19:13:41.162Z,8.30
2019-03-29T19:16:09.868Z,9.47
2019-03-29T19:18:38.619Z,10.00
2019-03-29T19:21:07.052Z,10.10
2019-03-29T19:23:35.626Z,9.90
2019-03-29T19:26:04.309Z,9.17
2019-03-29T19:28:32.735Z,11.03
2019-03-29T19:31:01.187Z,10.43
2019-03-29T19:33:29.646Z,11.33
2019-03-29T19:35:58.610Z,10.10
2019-03-29T19:38:27.415Z,9.60
2019-03-29T19:40:55.842Z,9.03
2019-03-29T19:43:24.279Z,8.73
2019-03-29T19:45:52.755Z,8.90
2019-03-29T19:48:21.184Z,9.50
2019-03-29T19:50:49.946Z,9.40
2019-03-29T19:53:18.490Z,9.53
2019-03-29T19:55:47.124Z,9.20
2019-03-29T19:58:16.571Z,9.60
2019-03-29T20:00:45.414Z,9.23
2019-03-29T20:03:13.910Z,10.33
2019-03-29T20:05:42.354Z,10.30
2019-03-29T20:08:10.858Z,10.27
2019-03-29T20:10:39.538Z,9.60
2019-03-29T20:13:07.975Z,10.17
2019-03-29T20:15:36.598Z,10.67
2019-03-29T20:18:05.229Z,11.00
2019-03-29T20:20:33.671Z,11.13
2019-03-29T20:23:02.146Z,11.27
2019-03-29T20:25:30.586Z,10.90
2019-03-29T20:27:59.094Z,12.17
2019-03-29T20:30:28.115Z,13.07
2019-03-29T20:32:56.813Z,11.10
2019-03-29T20:35:25.256Z,11.13
2019-03-29T20:37:53.711Z,11.03
2019-03-29T20:40:22.154Z,10.83
2019-03-29T20:42:50.586Z,10.63
2019-03-29T20:45:19.323Z,10.47
2019-03-29T20:47:51.618Z,10.37
2019-03-29T20:50:18.330Z,10.53
2019-03-29T20:52:46.871Z,10.53
2019-03-29T20:55:15.570Z,10.80
2019-03-29T20:57:44.075Z,9.70
2019-03-29T21:00:13.666Z,11.00
2019-03-29T21:02:42.166Z,10.73
2019-03-29T21:05:10.749Z,10.77
2019-03-29T21:07:39.282Z,11.40
2019-03-29T21:10:08.059Z,10.73
2019-03-29T21:12:36.570Z,11.80
2019-03-29T21:15:06.589Z,11.20
2019-03-29T21:17:35.286Z,11.30
2019-03-29T21:20:06.287Z,11.30
2019-03-29T21:22:34.898Z,11.63
2019-03-29T21:25:04.741Z,13.00
2019-03-29T21:27:33.190Z,11.97
2019-03-29T21:30:01.658Z,10.63
2019-03-29T21:32:30.094Z,11.77
2019-03-29T21:34:58.839Z,11.20
2019-03-29T21:37:27.308Z,11.10
2019-03-29T21:39:55.740Z,10.63
2019-03-29T21:42:24.418Z,11.17
2019-03-29T21:44:52.886Z,11.63
2019-03-29T21:47:21.346Z,11.80
2019-03-29T21:49:49.802Z,11.50
2019-03-29T21:52:18.354Z,11.43
2019-03-29T21:54:47.319Z,12.00
2019-03-29T21:57:15.915Z,12.50
2019-03-29T21:59:44.346Z,11.90
2019-03-29T22:02:12.819Z,11.20
2019-03-29T22:04:41.266Z,12.90
2019-03-29T22:07:10.163Z,11.90
2019-03-29T22:09:38.658Z,11.93
2019-03-29T22:12:07.095Z,12.43
2019-03-29T22:14:35.706Z,13.70
2019-03-29T22:17:04.360Z,14.57
2019-03-29T22:19:32.795Z,12.10
2019-03-29T22:22:01.227Z,12.37
2019-03-29T22:24:29.715Z,12.73
2019-03-29T22:26:58.146Z,12.63
2019-03-29T22:29:26.655Z,12.80
2019-03-29T22:31:55.135Z,12.87
2019-03-29T22:34:23.572Z,12.63
2019-03-29T22:36:51.998Z,11.67
2019-03-29T22:39:20.451Z,12.27
2019-03-29T22:41:48.882Z,12.57
2019-03-29T22:44:17.315Z,12.60
2019-03-29T22:46:45.815Z,13.03
2019-03-29T22:49:14.710Z,12.50
2019-03-29T22:51:43.213Z,12.80
2019-03-29T22:54:11.670Z,12.67
2019-03-29T22:56:40.474Z,14.03
2019-03-29T22:59:08.924Z,15.27
2019-03-29T23:01:40.715Z,15.03
2019-03-29T23:04:09.148Z,14.67
2019-03-29T23:06:37.586Z,14.90
2019-03-29T23:09:07.702Z,14.13
2019-03-29T23:11:36.133Z,14.77
2019-03-29T23:14:04.706Z,16.33
2019-03-29T23:16:33.165Z,14.53
2019-03-29T23:19:06.849Z,14.57
2019-03-29T23:21:31.769Z,14.10
2019-03-29T23:24:00.566Z,14.20
2019-03-29T23:26:30.165Z,15.43
2019-03-29T23:28:58.717Z,14.80
2019-03-29T23:31:27.643Z,13.20
2019-03-29T23:33:56.171Z,12.33
2019-03-29T23:36:24.639Z,14.10
2019-03-29T23:38:53.267Z,13.27
2019-03-29T23:41:22.114Z,12.93
2019-03-29T23:43:50.560Z,14.30
2019-03-29T23:46:19.014Z,13.60
2019-03-29T23:48:47.597Z,13.63
2019-03-29T23:51:16.038Z,12.80
2019-03-29T23:53:44.587Z,12.93
2019-03-29T23:56:13.019Z,12.10
2019-03-29T23:58:41.479Z,13.13
